Terminal Aerodrome Forecast
Issued by NWS

Current Version | Previous Version | Text Only | Print | Product List | Glossary Off
Versions: 1 2 3 4 5 6 7 8 9 10 11 12 13 14 15 16 17 18 19 20 21 22

000
FTUS41 KPBZ 191100
TAFHLG
TAF
KHLG 191136Z 1912/2012 12005KT 3SM -SHRA BR SCT006 OVC015
      TEMPO 1912/1914 2SM -SHRA BR BKN006
     FM191700 16008KT 6SM -SHRA OVC020
     FM192000 17005KT P6SM VCSH BKN035
     FM200800 18003KT 3SM BR BKN040=

USA.gov is the U.S. government's official web portal to all federal, state and local government web resources and services.